sensor_id;sensor_type;location;lat;lon;timestamp;P1;durP1;ratioP1;P2;durP2;ratioP2
10811;SDS011;5458;51.496;7.334;2022-10-31T00:01:23;12.75;;;7.93;;
10811;SDS011;5458;51.496;7.334;2022-10-31T00:03:50;10.00;;;6.95;;
10811;SDS011;5458;51.496;7.334;2022-10-31T00:06:16;10.00;;;6.75;;
10811;SDS011;5458;51.496;7.334;2022-10-31T00:08:51;12.00;;;7.07;;
10811;SDS011;5458;51.496;7.334;2022-10-31T00:11:27;11.68;;;7.03;;
10811;SDS011;5458;51.496;7.334;2022-10-31T00:13:53;10.57;;;7.00;;
10811;SDS011;5458;51.496;7.334;2022-10-31T00:16:21;15.45;;;8.15;;
10811;SDS011;5458;51.496;7.334;2022-10-31T00:18:51;14.73;;;6.90;;
10811;SDS011;5458;51.496;7.334;2022-10-31T00:21:18;12.98;;;7.82;;
10811;SDS011;5458;51.496;7.334;2022-10-31T00:23:44;12.27;;;7.38;;
10811;SDS011;5458;51.496;7.334;2022-10-31T00:26:10;16.63;;;7.85;;
10811;SDS011;5458;51.496;7.334;2022-10-31T00:28:36;9.75;;;6.93;;
10811;SDS011;5458;51.496;7.334;2022-10-31T00:31:02;12.18;;;7.20;;
10811;SDS011;5458;51.496;7.334;2022-10-31T00:33:29;11.85;;;7.47;;
10811;SDS011;5458;51.496;7.334;2022-10-31T00:35:55;11.48;;;7.82;;
10811;SDS011;5458;51.496;7.334;2022-10-31T00:38:21;10.63;;;7.05;;
10811;SDS011;5458;51.496;7.334;2022-10-31T00:40:47;15.63;;;6.97;;
10811;SDS011;5458;51.496;7.334;2022-10-31T00:43:13;10.43;;;7.22;;
10811;SDS011;5458;51.496;7.334;2022-10-31T00:45:38;9.68;;;8.48;;
10811;SDS011;5458;51.496;7.334;2022-10-31T00:48:04;12.98;;;7.72;;
10811;SDS011;5458;51.496;7.334;2022-10-31T00:50:30;7.90;;;6.88;;
10811;SDS011;5458;51.496;7.334;2022-10-31T00:52:55;10.40;;;7.65;;
10811;SDS011;5458;51.496;7.334;2022-10-31T00:55:21;11.80;;;6.88;;
10811;SDS011;5458;51.496;7.334;2022-10-31T00:57:47;11.27;;;7.40;;
10811;SDS011;5458;51.496;7.334;2022-10-31T01:00:13;10.18;;;6.85;;
10811;SDS011;5458;51.496;7.334;2022-10-31T01:02:39;13.13;;;7.93;;
10811;SDS011;5458;51.496;7.334;2022-10-31T01:05:04;11.13;;;7.38;;
10811;SDS011;5458;51.496;7.334;2022-10-31T01:07:30;14.60;;;7.80;;
10811;SDS011;5458;51.496;7.334;2022-10-31T01:09:56;10.70;;;7.07;;
10811;SDS011;5458;51.496;7.334;2022-10-31T01:12:21;9.73;;;7.30;;
10811;SDS011;5458;51.496;7.334;2022-10-31T01:14:47;14.45;;;7.32;;
10811;SDS011;5458;51.496;7.334;2022-10-31T01:17:13;9.70;;;6.95;;
10811;SDS011;5458;51.496;7.334;2022-10-31T01:19:39;11.20;;;6.97;;
10811;SDS011;5458;51.496;7.334;2022-10-31T01:22:05;12.20;;;7.28;;
10811;SDS011;5458;51.496;7.334;2022-10-31T01:24:30;12.57;;;8.23;;
10811;SDS011;5458;51.496;7.334;2022-10-31T01:26:56;15.00;;;7.80;;
10811;SDS011;5458;51.496;7.334;2022-10-31T01:29:21;12.57;;;7.78;;
10811;SDS011;5458;51.496;7.334;2022-10-31T01:31:47;10.85;;;7.88;;
10811;SDS011;5458;51.496;7.334;2022-10-31T01:34:13;15.77;;;7.75;;
10811;SDS011;5458;51.496;7.334;2022-10-31T01:36:40;8.20;;;6.82;;
10811;SDS011;5458;51.496;7.334;2022-10-31T01:39:10;10.10;;;7.72;;
10811;SDS011;5458;51.496;7.334;2022-10-31T01:41:39;13.32;;;6.80;;
10811;SDS011;5458;51.496;7.334;2022-10-31T01:46:40;11.93;;;7.57;;
10811;SDS011;5458;51.496;7.334;2022-10-31T01:49:13;20.88;;;7.43;;
10811;SDS011;5458;51.496;7.334;2022-10-31T01:51:50;10.35;;;7.53;;
10811;SDS011;5458;51.496;7.334;2022-10-31T01:54:42;9.88;;;7.50;;
10811;SDS011;5458;51.496;7.334;2022-10-31T01:57:13;11.25;;;7.63;;
10811;SDS011;5458;51.496;7.334;2022-10-31T01:59:42;13.93;;;8.55;;
10811;SDS011;5458;51.496;7.334;2022-10-31T02:02:13;12.75;;;7.88;;
10811;SDS011;5458;51.496;7.334;2022-10-31T02:04:40;12.35;;;7.50;;
10811;SDS011;5458;51.496;7.334;2022-10-31T02:09:54;13.60;;;7.50;;
10811;SDS011;5458;51.496;7.334;2022-10-31T02:12:22;11.65;;;7.80;;
10811;SDS011;5458;51.496;7.334;2022-10-31T02:14:49;11.88;;;7.85;;
10811;SDS011;5458;51.496;7.334;2022-10-31T02:17:15;13.40;;;7.68;;
10811;SDS011;5458;51.496;7.334;2022-10-31T02:22:58;12.50;;;7.93;;
10811;SDS011;5458;51.496;7.334;2022-10-31T02:26:32;15.07;;;8.30;;
10811;SDS011;5458;51.496;7.334;2022-10-31T02:34:36;12.73;;;8.23;;
10811;SDS011;5458;51.496;7.334;2022-10-31T02:37:42;11.35;;;7.75;;
10811;SDS011;5458;51.496;7.334;2022-10-31T02:40:24;14.70;;;8.43;;
10811;SDS011;5458;51.496;7.334;2022-10-31T02:46:01;14.50;;;8.23;;
10811;SDS011;5458;51.496;7.334;2022-10-31T02:48:12;12.50;;;8.25;;
10811;SDS011;5458;51.496;7.334;2022-10-31T02:50:43;11.88;;;7.97;;
10811;SDS011;5458;51.496;7.334;2022-10-31T02:53:15;12.23;;;8.20;;
10811;SDS011;5458;51.496;7.334;2022-10-31T02:55:47;18.13;;;8.23;;
10811;SDS011;5458;51.496;7.334;2022-10-31T02:58:14;15.02;;;8.18;;
10811;SDS011;5458;51.496;7.334;2022-10-31T03:09:12;11.88;;;8.95;;
10811;SDS011;5458;51.496;7.334;2022-10-31T03:12:20;11.65;;;8.30;;
10811;SDS011;5458;51.496;7.334;2022-10-31T03:14:41;12.77;;;7.95;;
10811;SDS011;5458;51.496;7.334;2022-10-31T03:17:15;11.65;;;8.05;;
10811;SDS011;5458;51.496;7.334;2022-10-31T03:19:52;11.88;;;8.68;;
10811;SDS011;5458;51.496;7.334;2022-10-31T03:22:21;16.52;;;9.07;;
10811;SDS011;5458;51.496;7.334;2022-10-31T03:24:48;14.05;;;8.57;;
10811;SDS011;5458;51.496;7.334;2022-10-31T03:27:17;15.25;;;10.15;;
10811;SDS011;5458;51.496;7.334;2022-10-31T03:29:46;14.32;;;9.43;;
10811;SDS011;5458;51.496;7.334;2022-10-31T03:32:18;13.75;;;9.00;;
10811;SDS011;5458;51.496;7.334;2022-10-31T03:34:47;13.07;;;9.07;;
10811;SDS011;5458;51.496;7.334;2022-10-31T03:37:15;13.23;;;8.52;;
10811;SDS011;5458;51.496;7.334;2022-10-31T03:39:44;14.02;;;9.27;;
10811;SDS011;5458;51.496;7.334;2022-10-31T03:42:31;13.15;;;8.73;;
10811;SDS011;5458;51.496;7.334;2022-10-31T03:45:01;12.38;;;9.18;;
10811;SDS011;5458;51.496;7.334;2022-10-31T03:47:28;12.18;;;9.65;;
10811;SDS011;5458;51.496;7.334;2022-10-31T03:49:54;16.00;;;9.32;;
10811;SDS011;5458;51.496;7.334;2022-10-31T03:52:25;14.82;;;9.63;;
10811;SDS011;5458;51.496;7.334;2022-10-31T03:57:59;18.63;;;9.48;;
10811;SDS011;5458;51.496;7.334;2022-10-31T04:00:32;12.30;;;7.65;;
10811;SDS011;5458;51.496;7.334;2022-10-31T04:03:01;13.85;;;8.90;;
10811;SDS011;5458;51.496;7.334;2022-10-31T04:05:32;14.02;;;8.98;;
10811;SDS011;5458;51.496;7.334;2022-10-31T04:08:00;14.43;;;9.00;;
10811;SDS011;5458;51.496;7.334;2022-10-31T04:10:28;16.77;;;9.38;;
10811;SDS011;5458;51.496;7.334;2022-10-31T04:12:56;14.73;;;9.27;;
10811;SDS011;5458;51.496;7.334;2022-10-31T04:15:32;15.05;;;9.85;;
10811;SDS011;5458;51.496;7.334;2022-10-31T04:17:59;16.40;;;9.02;;
10811;SDS011;5458;51.496;7.334;2022-10-31T04:20:29;15.65;;;10.23;;
10811;SDS011;5458;51.496;7.334;2022-10-31T04:22:59;16.02;;;10.38;;
10811;SDS011;5458;51.496;7.334;2022-10-31T04:25:25;14.18;;;10.25;;
10811;SDS011;5458;51.496;7.334;2022-10-31T04:27:51;13.20;;;9.90;;
10811;SDS011;5458;51.496;7.334;2022-10-31T04:30:17;17.77;;;10.90;;
10811;SDS011;5458;51.496;7.334;2022-10-31T04:32:42;17.80;;;10.93;;
10811;SDS011;5458;51.496;7.334;2022-10-31T04:35:08;18.77;;;10.75;;
10811;SDS011;5458;51.496;7.334;2022-10-31T04:37:34;15.48;;;10.65;;
10811;SDS011;5458;51.496;7.334;2022-10-31T04:39:59;16.67;;;10.25;;
10811;SDS011;5458;51.496;7.334;2022-10-31T04:42:25;17.65;;;10.80;;
10811;SDS011;5458;51.496;7.334;2022-10-31T04:44:53;15.27;;;9.52;;
10811;SDS011;5458;51.496;7.334;2022-10-31T04:47:19;13.52;;;9.65;;
10811;SDS011;5458;51.496;7.334;2022-10-31T04:49:44;18.38;;;10.23;;
10811;SDS011;5458;51.496;7.334;2022-10-31T04:52:10;16.48;;;9.75;;
10811;SDS011;5458;51.496;7.334;2022-10-31T04:54:35;12.55;;;9.82;;
10811;SDS011;5458;51.496;7.334;2022-10-31T04:57:01;15.85;;;10.30;;
10811;SDS011;5458;51.496;7.334;2022-10-31T04:59:26;17.10;;;10.85;;
10811;SDS011;5458;51.496;7.334;2022-10-31T05:01:52;15.93;;;11.32;;
10811;SDS011;5458;51.496;7.334;2022-10-31T05:04:18;16.08;;;10.43;;
10811;SDS011;5458;51.496;7.334;2022-10-31T05:06:43;17.55;;;10.57;;
10811;SDS011;5458;51.496;7.334;2022-10-31T05:09:09;17.00;;;10.57;;
10811;SDS011;5458;51.496;7.334;2022-10-31T05:11:34;17.67;;;11.20;;
10811;SDS011;5458;51.496;7.334;2022-10-31T05:14:00;24.55;;;11.65;;
10811;SDS011;5458;51.496;7.334;2022-10-31T05:16:25;17.70;;;10.30;;
10811;SDS011;5458;51.496;7.334;2022-10-31T05:18:51;16.42;;;9.50;;
10811;SDS011;5458;51.496;7.334;2022-10-31T05:21:16;14.10;;;10.25;;
10811;SDS011;5458;51.496;7.334;2022-10-31T05:23:42;16.27;;;10.48;;
10811;SDS011;5458;51.496;7.334;2022-10-31T05:26:07;17.13;;;10.80;;
10811;SDS011;5458;51.496;7.334;2022-10-31T05:28:33;19.23;;;10.15;;
10811;SDS011;5458;51.496;7.334;2022-10-31T05:30:59;16.52;;;10.60;;
10811;SDS011;5458;51.496;7.334;2022-10-31T05:33:24;15.57;;;9.80;;
10811;SDS011;5458;51.496;7.334;2022-10-31T05:35:50;14.60;;;10.25;;
10811;SDS011;5458;51.496;7.334;2022-10-31T05:38:15;17.42;;;9.88;;
10811;SDS011;5458;51.496;7.334;2022-10-31T05:40:41;17.77;;;11.05;;
10811;SDS011;5458;51.496;7.334;2022-10-31T05:43:06;15.57;;;10.55;;
10811;SDS011;5458;51.496;7.334;2022-10-31T05:45:32;17.77;;;11.23;;
10811;SDS011;5458;51.496;7.334;2022-10-31T05:47:58;18.88;;;10.77;;
10811;SDS011;5458;51.496;7.334;2022-10-31T05:50:25;14.98;;;10.77;;
10811;SDS011;5458;51.496;7.334;2022-10-31T05:52:56;13.90;;;9.93;;
10811;SDS011;5458;51.496;7.334;2022-10-31T05:55:23;17.10;;;10.85;;
10811;SDS011;5458;51.496;7.334;2022-10-31T05:57:50;16.05;;;10.35;;
10811;SDS011;5458;51.496;7.334;2022-10-31T06:00:16;16.92;;;11.68;;
10811;SDS011;5458;51.496;7.334;2022-10-31T06:02:42;15.98;;;11.00;;
10811;SDS011;5458;51.496;7.334;2022-10-31T06:05:08;15.20;;;10.65;;
10811;SDS011;5458;51.496;7.334;2022-10-31T06:07:34;17.60;;;11.10;;
10811;SDS011;5458;51.496;7.334;2022-10-31T06:10:00;17.73;;;11.60;;
10811;SDS011;5458;51.496;7.334;2022-10-31T06:12:27;15.77;;;10.43;;
10811;SDS011;5458;51.496;7.334;2022-10-31T06:14:53;19.05;;;11.35;;
10811;SDS011;5458;51.496;7.334;2022-10-31T06:17:18;19.35;;;11.10;;
10811;SDS011;5458;51.496;7.334;2022-10-31T06:19:44;16.55;;;10.82;;
10811;SDS011;5458;51.496;7.334;2022-10-31T06:22:09;17.27;;;11.20;;
10811;SDS011;5458;51.496;7.334;2022-10-31T06:24:36;20.45;;;11.63;;
10811;SDS011;5458;51.496;7.334;2022-10-31T06:27:03;20.63;;;11.73;;
10811;SDS011;5458;51.496;7.334;2022-10-31T06:29:28;20.48;;;11.50;;
10811;SDS011;5458;51.496;7.334;2022-10-31T06:31:54;15.38;;;11.27;;
10811;SDS011;5458;51.496;7.334;2022-10-31T06:34:20;16.23;;;10.63;;
10811;SDS011;5458;51.496;7.334;2022-10-31T06:36:46;20.10;;;12.25;;
10811;SDS011;5458;51.496;7.334;2022-10-31T06:39:12;20.73;;;12.43;;
10811;SDS011;5458;51.496;7.334;2022-10-31T06:41:38;18.77;;;11.50;;
10811;SDS011;5458;51.496;7.334;2022-10-31T06:44:05;16.95;;;10.60;;
10811;SDS011;5458;51.496;7.334;2022-10-31T06:46:31;17.38;;;11.38;;
10811;SDS011;5458;51.496;7.334;2022-10-31T06:48:56;14.50;;;10.23;;
10811;SDS011;5458;51.496;7.334;2022-10-31T06:51:22;14.68;;;10.77;;
10811;SDS011;5458;51.496;7.334;2022-10-31T06:53:47;16.13;;;10.88;;
10811;SDS011;5458;51.496;7.334;2022-10-31T06:56:13;19.58;;;10.77;;
10811;SDS011;5458;51.496;7.334;2022-10-31T06:58:39;18.35;;;11.32;;
10811;SDS011;5458;51.496;7.334;2022-10-31T07:01:05;15.90;;;10.70;;
10811;SDS011;5458;51.496;7.334;2022-10-31T07:03:30;17.67;;;10.40;;
10811;SDS011;5458;51.496;7.334;2022-10-31T07:05:56;18.08;;;11.63;;
10811;SDS011;5458;51.496;7.334;2022-10-31T07:08:22;22.30;;;12.00;;
10811;SDS011;5458;51.496;7.334;2022-10-31T07:10:52;21.73;;;12.00;;
10811;SDS011;5458;51.496;7.334;2022-10-31T07:13:19;14.52;;;11.00;;
10811;SDS011;5458;51.496;7.334;2022-10-31T07:15:49;18.25;;;11.75;;
10811;SDS011;5458;51.496;7.334;2022-10-31T07:18:15;14.07;;;10.88;;
10811;SDS011;5458;51.496;7.334;2022-10-31T07:20:41;16.77;;;11.27;;
10811;SDS011;5458;51.496;7.334;2022-10-31T07:23:07;18.52;;;11.75;;
10811;SDS011;5458;51.496;7.334;2022-10-31T07:25:34;18.58;;;10.95;;
10811;SDS011;5458;51.496;7.334;2022-10-31T07:28:00;18.85;;;11.50;;
10811;SDS011;5458;51.496;7.334;2022-10-31T07:30:26;16.15;;;10.57;;
10811;SDS011;5458;51.496;7.334;2022-10-31T07:32:51;13.00;;;10.30;;
10811;SDS011;5458;51.496;7.334;2022-10-31T07:35:21;16.90;;;11.32;;
10811;SDS011;5458;51.496;7.334;2022-10-31T07:37:49;15.93;;;11.38;;
10811;SDS011;5458;51.496;7.334;2022-10-31T07:40:15;15.48;;;11.98;;
10811;SDS011;5458;51.496;7.334;2022-10-31T07:42:42;19.30;;;11.68;;
10811;SDS011;5458;51.496;7.334;2022-10-31T07:45:10;19.05;;;13.57;;
10811;SDS011;5458;51.496;7.334;2022-10-31T07:47:44;18.52;;;12.88;;
10811;SDS011;5458;51.496;7.334;2022-10-31T07:50:17;19.95;;;12.80;;
10811;SDS011;5458;51.496;7.334;2022-10-31T07:52:46;20.38;;;12.68;;
10811;SDS011;5458;51.496;7.334;2022-10-31T07:55:12;24.08;;;12.93;;
10811;SDS011;5458;51.496;7.334;2022-10-31T07:57:38;20.70;;;13.32;;
10811;SDS011;5458;51.496;7.334;2022-10-31T08:00:04;19.52;;;13.23;;
10811;SDS011;5458;51.496;7.334;2022-10-31T08:02:32;22.92;;;13.15;;
10811;SDS011;5458;51.496;7.334;2022-10-31T08:04:57;26.42;;;13.68;;
10811;SDS011;5458;51.496;7.334;2022-10-31T08:07:24;21.70;;;13.55;;
10811;SDS011;5458;51.496;7.334;2022-10-31T08:09:50;25.13;;;13.63;;
10811;SDS011;5458;51.496;7.334;2022-10-31T08:12:16;17.58;;;11.98;;
10811;SDS011;5458;51.496;7.334;2022-10-31T08:14:41;19.75;;;12.52;;
10811;SDS011;5458;51.496;7.334;2022-10-31T08:17:07;25.40;;;12.10;;
10811;SDS011;5458;51.496;7.334;2022-10-31T08:19:33;21.50;;;12.27;;
10811;SDS011;5458;51.496;7.334;2022-10-31T08:21:58;21.00;;;12.07;;
10811;SDS011;5458;51.496;7.334;2022-10-31T08:24:24;22.23;;;13.38;;
10811;SDS011;5458;51.496;7.334;2022-10-31T08:26:49;19.98;;;12.65;;
10811;SDS011;5458;51.496;7.334;2022-10-31T08:29:16;16.42;;;10.95;;
10811;SDS011;5458;51.496;7.334;2022-10-31T08:31:42;15.88;;;10.50;;
10811;SDS011;5458;51.496;7.334;2022-10-31T08:34:08;18.85;;;11.10;;
10811;SDS011;5458;51.496;7.334;2022-10-31T08:36:33;18.40;;;11.75;;
10811;SDS011;5458;51.496;7.334;2022-10-31T08:38:59;17.60;;;11.98;;
10811;SDS011;5458;51.496;7.334;2022-10-31T08:41:25;15.95;;;11.32;;
10811;SDS011;5458;51.496;7.334;2022-10-31T08:43:51;14.15;;;10.65;;
10811;SDS011;5458;51.496;7.334;2022-10-31T08:46:16;17.90;;;10.65;;
10811;SDS011;5458;51.496;7.334;2022-10-31T08:48:43;17.05;;;11.70;;
10811;SDS011;5458;51.496;7.334;2022-10-31T08:51:09;18.75;;;11.65;;
10811;SDS011;5458;51.496;7.334;2022-10-31T08:53:35;23.02;;;11.75;;
10811;SDS011;5458;51.496;7.334;2022-10-31T08:56:01;15.13;;;10.75;;
10811;SDS011;5458;51.496;7.334;2022-10-31T08:58:27;17.90;;;11.50;;
10811;SDS011;5458;51.496;7.334;2022-10-31T09:00:53;16.65;;;11.38;;
10811;SDS011;5458;51.496;7.334;2022-10-31T09:03:23;16.95;;;11.65;;
10811;SDS011;5458;51.496;7.334;2022-10-31T09:05:54;19.15;;;11.73;;
10811;SDS011;5458;51.496;7.334;2022-10-31T09:08:21;19.85;;;12.75;;
10811;SDS011;5458;51.496;7.334;2022-10-31T09:10:47;17.55;;;12.73;;
10811;SDS011;5458;51.496;7.334;2022-10-31T09:13:15;18.58;;;12.05;;
10811;SDS011;5458;51.496;7.334;2022-10-31T09:15:44;18.45;;;11.85;;
10811;SDS011;5458;51.496;7.334;2022-10-31T09:18:12;17.85;;;11.90;;
10811;SDS011;5458;51.496;7.334;2022-10-31T09:20:40;20.73;;;12.02;;
10811;SDS011;5458;51.496;7.334;2022-10-31T09:23:08;14.55;;;12.27;;
10811;SDS011;5458;51.496;7.334;2022-10-31T09:25:39;20.05;;;11.95;;
10811;SDS011;5458;51.496;7.334;2022-10-31T09:28:06;19.80;;;13.20;;
10811;SDS011;5458;51.496;7.334;2022-10-31T09:30:33;19.00;;;13.02;;
10811;SDS011;5458;51.496;7.334;2022-10-31T09:33:01;14.52;;;11.52;;
10811;SDS011;5458;51.496;7.334;2022-10-31T09:35:28;20.30;;;12.05;;
10811;SDS011;5458;51.496;7.334;2022-10-31T09:37:57;22.23;;;13.55;;
10811;SDS011;5458;51.496;7.334;2022-10-31T09:40:24;23.88;;;12.95;;
10811;SDS011;5458;51.496;7.334;2022-10-31T09:51:08;28.00;;;12.82;;
10811;SDS011;5458;51.496;7.334;2022-10-31T09:56:16;15.93;;;12.32;;
10811;SDS011;5458;51.496;7.334;2022-10-31T09:58:52;18.73;;;14.25;;
10811;SDS011;5458;51.496;7.334;2022-10-31T10:04:16;22.55;;;14.15;;
10811;SDS011;5458;51.496;7.334;2022-10-31T10:07:06;22.13;;;13.10;;
10811;SDS011;5458;51.496;7.334;2022-10-31T10:09:41;20.75;;;14.00;;
10811;SDS011;5458;51.496;7.334;2022-10-31T10:17:26;23.08;;;12.32;;
10811;SDS011;5458;51.496;7.334;2022-10-31T10:25:55;21.52;;;13.60;;
10811;SDS011;5458;51.496;7.334;2022-10-31T10:28:38;22.60;;;12.52;;
10811;SDS011;5458;51.496;7.334;2022-10-31T10:31:23;21.27;;;13.70;;
10811;SDS011;5458;51.496;7.334;2022-10-31T10:36:36;20.20;;;12.80;;
10811;SDS011;5458;51.496;7.334;2022-10-31T10:41:41;19.98;;;12.63;;
10811;SDS011;5458;51.496;7.334;2022-10-31T10:44:10;21.70;;;13.23;;
10811;SDS011;5458;51.496;7.334;2022-10-31T10:46:42;23.63;;;13.75;;
10811;SDS011;5458;51.496;7.334;2022-10-31T10:52:16;26.50;;;14.48;;
10811;SDS011;5458;51.496;7.334;2022-10-31T10:55:19;22.10;;;12.18;;
10811;SDS011;5458;51.496;7.334;2022-10-31T11:00:30;23.15;;;13.07;;
10811;SDS011;5458;51.496;7.334;2022-10-31T11:02:55;23.98;;;13.93;;
10811;SDS011;5458;51.496;7.334;2022-10-31T11:11:27;23.13;;;13.77;;
10811;SDS011;5458;51.496;7.334;2022-10-31T11:14:05;22.15;;;13.38;;
10811;SDS011;5458;51.496;7.334;2022-10-31T11:16:38;26.13;;;14.45;;
10811;SDS011;5458;51.496;7.334;2022-10-31T11:19:23;22.35;;;13.55;;
10811;SDS011;5458;51.496;7.334;2022-10-31T11:21:51;26.10;;;13.43;;
10811;SDS011;5458;51.496;7.334;2022-10-31T11:26:49;19.00;;;11.68;;
10811;SDS011;5458;51.496;7.334;2022-10-31T11:29:23;22.40;;;12.18;;
10811;SDS011;5458;51.496;7.334;2022-10-31T11:31:51;23.08;;;11.55;;
10811;SDS011;5458;51.496;7.334;2022-10-31T11:34:22;18.00;;;10.40;;
10811;SDS011;5458;51.496;7.334;2022-10-31T11:36:54;18.92;;;11.27;;
10811;SDS011;5458;51.496;7.334;2022-10-31T11:39:23;16.75;;;10.52;;
10811;SDS011;5458;51.496;7.334;2022-10-31T11:41:50;18.50;;;10.68;;
10811;SDS011;5458;51.496;7.334;2022-10-31T11:44:18;22.88;;;10.60;;
10811;SDS011;5458;51.496;7.334;2022-10-31T11:52:13;14.00;;;9.88;;
10811;SDS011;5458;51.496;7.334;2022-10-31T11:54:48;17.42;;;8.98;;
10811;SDS011;5458;51.496;7.334;2022-10-31T12:00:23;19.80;;;10.13;;
10811;SDS011;5458;51.496;7.334;2022-10-31T12:03:01;14.00;;;10.23;;
10811;SDS011;5458;51.496;7.334;2022-10-31T12:05:35;14.93;;;10.45;;
10811;SDS011;5458;51.496;7.334;2022-10-31T12:08:03;17.88;;;12.20;;
10811;SDS011;5458;51.496;7.334;2022-10-31T12:10:34;19.67;;;9.82;;
10811;SDS011;5458;51.496;7.334;2022-10-31T12:16:18;16.08;;;9.32;;
10811;SDS011;5458;51.496;7.334;2022-10-31T12:18:56;15.55;;;9.48;;
10811;SDS011;5458;51.496;7.334;2022-10-31T12:24:41;12.88;;;8.23;;
10811;SDS011;5458;51.496;7.334;2022-10-31T12:30:12;14.93;;;8.50;;
10811;SDS011;5458;51.496;7.334;2022-10-31T12:32:53;12.20;;;7.57;;
10811;SDS011;5458;51.496;7.334;2022-10-31T12:36:27;12.40;;;6.90;;
10811;SDS011;5458;51.496;7.334;2022-10-31T12:41:40;8.30;;;5.93;;
10811;SDS011;5458;51.496;7.334;2022-10-31T12:57:44;9.45;;;5.45;;
10811;SDS011;5458;51.496;7.334;2022-10-31T13:05:37;10.07;;;6.43;;
10811;SDS011;5458;51.496;7.334;2022-10-31T13:08:10;13.10;;;6.45;;
10811;SDS011;5458;51.496;7.334;2022-10-31T13:10:55;12.98;;;6.05;;
10811;SDS011;5458;51.496;7.334;2022-10-31T13:13:53;12.65;;;5.93;;
10811;SDS011;5458;51.496;7.334;2022-10-31T13:16:24;12.75;;;7.53;;
10811;SDS011;5458;51.496;7.334;2022-10-31T13:27:02;11.05;;;6.88;;
10811;SDS011;5458;51.496;7.334;2022-10-31T13:29:38;12.48;;;7.47;;
10811;SDS011;5458;51.496;7.334;2022-10-31T13:32:09;15.25;;;7.07;;
10811;SDS011;5458;51.496;7.334;2022-10-31T13:34:36;11.82;;;7.85;;
10811;SDS011;5458;51.496;7.334;2022-10-31T13:37:10;14.48;;;6.97;;
10811;SDS011;5458;51.496;7.334;2022-10-31T13:39:51;10.70;;;6.68;;
10811;SDS011;5458;51.496;7.334;2022-10-31T13:45:27;11.32;;;6.43;;
10811;SDS011;5458;51.496;7.334;2022-10-31T13:47:57;11.85;;;6.90;;
10811;SDS011;5458;51.496;7.334;2022-10-31T13:50:29;12.07;;;6.68;;
10811;SDS011;5458;51.496;7.334;2022-10-31T13:56:09;14.23;;;7.25;;
10811;SDS011;5458;51.496;7.334;2022-10-31T13:58:59;10.65;;;7.15;;
10811;SDS011;5458;51.496;7.334;2022-10-31T14:01:31;11.70;;;7.40;;
10811;SDS011;5458;51.496;7.334;2022-10-31T14:03:59;14.55;;;7.15;;
10811;SDS011;5458;51.496;7.334;2022-10-31T14:06:44;14.15;;;8.18;;
10811;SDS011;5458;51.496;7.334;2022-10-31T14:11:50;13.15;;;7.55;;
10811;SDS011;5458;51.496;7.334;2022-10-31T14:14:17;14.55;;;8.23;;
10811;SDS011;5458;51.496;7.334;2022-10-31T14:16:44;14.43;;;7.28;;
10811;SDS011;5458;51.496;7.334;2022-10-31T14:19:17;13.15;;;6.78;;
10811;SDS011;5458;51.496;7.334;2022-10-31T14:21:45;15.02;;;8.05;;
10811;SDS011;5458;51.496;7.334;2022-10-31T14:26:56;18.70;;;9.23;;
10811;SDS011;5458;51.496;7.334;2022-10-31T14:29:48;20.83;;;10.82;;
10811;SDS011;5458;51.496;7.334;2022-10-31T14:32:18;14.88;;;9.48;;
10811;SDS011;5458;51.496;7.334;2022-10-31T14:37:20;17.77;;;10.68;;
10811;SDS011;5458;51.496;7.334;2022-10-31T14:45:42;13.75;;;7.30;;
10811;SDS011;5458;51.496;7.334;2022-10-31T14:48:24;11.07;;;7.60;;
10811;SDS011;5458;51.496;7.334;2022-10-31T14:51:44;11.30;;;6.80;;
10811;SDS011;5458;51.496;7.334;2022-10-31T14:54:10;11.98;;;6.85;;
10811;SDS011;5458;51.496;7.334;2022-10-31T14:56:49;13.13;;;7.07;;
10811;SDS011;5458;51.496;7.334;2022-10-31T14:59:19;12.85;;;7.05;;
10811;SDS011;5458;51.496;7.334;2022-10-31T15:01:54;12.63;;;6.05;;
10811;SDS011;5458;51.496;7.334;2022-10-31T15:04:34;13.00;;;5.95;;
10811;SDS011;5458;51.496;7.334;2022-10-31T15:07:09;13.15;;;6.05;;
10811;SDS011;5458;51.496;7.334;2022-10-31T15:09:41;13.73;;;7.07;;
10811;SDS011;5458;51.496;7.334;2022-10-31T15:12:21;12.40;;;7.03;;
10811;SDS011;5458;51.496;7.334;2022-10-31T15:14:52;12.23;;;6.25;;
10811;SDS011;5458;51.496;7.334;2022-10-31T15:17:17;11.52;;;5.80;;
10811;SDS011;5458;51.496;7.334;2022-10-31T15:19:44;14.25;;;6.38;;
10811;SDS011;5458;51.496;7.334;2022-10-31T15:22:13;11.50;;;6.85;;
10811;SDS011;5458;51.496;7.334;2022-10-31T15:24:40;13.93;;;6.28;;
10811;SDS011;5458;51.496;7.334;2022-10-31T15:27:10;11.20;;;7.00;;
10811;SDS011;5458;51.496;7.334;2022-10-31T15:29:46;11.45;;;7.32;;
10811;SDS011;5458;51.496;7.334;2022-10-31T15:34:53;11.35;;;6.82;;
10811;SDS011;5458;51.496;7.334;2022-10-31T15:37:21;8.02;;;5.95;;
10811;SDS011;5458;51.496;7.334;2022-10-31T15:39:49;11.23;;;6.38;;
10811;SDS011;5458;51.496;7.334;2022-10-31T15:45:04;13.45;;;7.20;;
10811;SDS011;5458;51.496;7.334;2022-10-31T15:47:53;20.52;;;12.43;;
10811;SDS011;5458;51.496;7.334;2022-10-31T15:52:55;28.45;;;18.83;;
10811;SDS011;5458;51.496;7.334;2022-10-31T15:55:22;18.85;;;10.93;;
10811;SDS011;5458;51.496;7.334;2022-10-31T15:57:53;13.57;;;9.73;;
10811;SDS011;5458;51.496;7.334;2022-10-31T16:00:25;16.02;;;9.00;;
10811;SDS011;5458;51.496;7.334;2022-10-31T16:05:47;14.30;;;8.35;;
10811;SDS011;5458;51.496;7.334;2022-10-31T16:08:25;15.85;;;7.90;;
10811;SDS011;5458;51.496;7.334;2022-10-31T16:11:02;11.32;;;7.60;;
10811;SDS011;5458;51.496;7.334;2022-10-31T16:16:41;13.88;;;7.93;;
10811;SDS011;5458;51.496;7.334;2022-10-31T16:19:28;10.27;;;7.05;;
10811;SDS011;5458;51.496;7.334;2022-10-31T16:22:07;11.48;;;6.90;;
10811;SDS011;5458;51.496;7.334;2022-10-31T16:24:43;14.48;;;7.97;;
10811;SDS011;5458;51.496;7.334;2022-10-31T16:27:21;12.30;;;7.88;;
10811;SDS011;5458;51.496;7.334;2022-10-31T16:29:53;11.90;;;7.93;;
10811;SDS011;5458;51.496;7.334;2022-10-31T16:32:34;16.38;;;8.15;;
10811;SDS011;5458;51.496;7.334;2022-10-31T16:35:24;12.00;;;7.20;;
10811;SDS011;5458;51.496;7.334;2022-10-31T16:37:57;10.00;;;7.20;;
10811;SDS011;5458;51.496;7.334;2022-10-31T16:40:22;14.75;;;7.88;;
10811;SDS011;5458;51.496;7.334;2022-10-31T16:42:49;12.45;;;6.97;;
10811;SDS011;5458;51.496;7.334;2022-10-31T16:45:16;10.82;;;7.63;;
10811;SDS011;5458;51.496;7.334;2022-10-31T16:47:42;12.80;;;7.40;;
10811;SDS011;5458;51.496;7.334;2022-10-31T16:50:41;14.43;;;9.70;;
10811;SDS011;5458;51.496;7.334;2022-10-31T16:52:59;13.60;;;10.05;;
10811;SDS011;5458;51.496;7.334;2022-10-31T16:55:24;13.55;;;8.18;;
10811;SDS011;5458;51.496;7.334;2022-10-31T16:57:51;12.82;;;8.23;;
10811;SDS011;5458;51.496;7.334;2022-10-31T17:00:21;18.73;;;8.18;;
10811;SDS011;5458;51.496;7.334;2022-10-31T17:02:48;15.35;;;7.60;;
10811;SDS011;5458;51.496;7.334;2022-10-31T17:05:19;13.18;;;8.00;;
10811;SDS011;5458;51.496;7.334;2022-10-31T17:07:47;12.38;;;8.23;;
10811;SDS011;5458;51.496;7.334;2022-10-31T17:10:13;13.48;;;8.32;;
10811;SDS011;5458;51.496;7.334;2022-10-31T17:12:41;10.73;;;7.53;;
10811;SDS011;5458;51.496;7.334;2022-10-31T17:15:35;13.27;;;7.15;;
10811;SDS011;5458;51.496;7.334;2022-10-31T17:18:01;12.93;;;6.22;;
10811;SDS011;5458;51.496;7.334;2022-10-31T17:20:28;10.50;;;6.38;;
10811;SDS011;5458;51.496;7.334;2022-10-31T17:22:55;16.15;;;6.68;;
10811;SDS011;5458;51.496;7.334;2022-10-31T17:25:23;11.80;;;6.32;;
10811;SDS011;5458;51.496;7.334;2022-10-31T17:27:54;11.43;;;6.57;;
10811;SDS011;5458;51.496;7.334;2022-10-31T17:30:20;10.32;;;7.32;;
10811;SDS011;5458;51.496;7.334;2022-10-31T17:32:46;9.95;;;7.15;;
10811;SDS011;5458;51.496;7.334;2022-10-31T17:35:13;13.00;;;7.28;;